Time;durP1;ratioP1;P1;durP2;ratioP2;P2;SDS_P1;SDS_P2;PMS_P1;PMS_P2;Temp;Humidity;BMP_temperature;BMP_pressure;BME280_temperature;BME280_humidity;BME280_pressure;Samples;Min_cycle;Max_cycle;Signal;HPM_P1;HPM_P2
2022/11/06 00:01:55;;;;;;;6.97;3.40;;;11.00;99.90;;;;;;5047124;28;20202;-81
2022/11/06 00:04:21;;;;;;;8.13;2.87;;;11.10;99.90;;;;;;5040333;28;20204;-88
2022/11/06 00:06:47;;;;;;;10.93;3.00;;;11.00;99.90;;;;;;5036504;28;20204;-78
2022/11/06 00:09:16;;;;;;;7.57;2.80;;;11.10;99.90;;;;;;5036519;28;20237;-78
2022/11/06 00:11:45;;;;;;;5.47;2.77;;;11.10;99.90;;;;;;5035829;28;20666;-78
2022/11/06 00:14:13;;;;;;;9.50;2.77;;;11.10;99.90;;;;;;5036351;28;20207;-79
2022/11/06 00:16:42;;;;;;;9.70;3.20;;;11.00;99.90;;;;;;5035922;28;20208;-81
2022/11/06 00:19:10;;;;;;;6.57;2.73;;;11.10;99.90;;;;;;5036391;28;20212;-80
2022/11/06 00:21:38;;;;;;;8.33;2.70;;;11.10;99.90;;;;;;5036330;28;20199;-80
2022/11/06 00:24:06;;;;;;;6.73;2.47;;;11.10;99.90;;;;;;5036117;28;20199;-78
2022/11/06 00:26:34;;;;;;;11.63;2.83;;;11.10;99.90;;;;;;5035655;28;20207;-81
2022/11/06 00:29:03;;;;;;;6.68;2.80;;;11.10;99.90;;;;;;5034797;28;20444;-79
2022/11/06 00:31:34;;;;;;;6.63;2.60;;;11.20;99.90;;;;;;5035648;28;20670;-78
2022/11/06 00:34:01;;;;;;;6.83;2.90;;;11.20;99.90;;;;;;5036291;28;20208;-79
2022/11/06 00:36:30;;;;;;;8.83;2.50;;;11.20;99.90;;;;;;5035408;28;20205;-78
2022/11/06 00:38:58;;;;;;;6.67;2.53;;;11.20;99.90;;;;;;5035967;28;20207;-84
2022/11/06 00:41:25;;;;;;;4.37;2.50;;;11.20;99.90;;;;;;5035633;28;20204;-79
2022/11/06 00:43:56;;;;;;;5.87;2.73;;;11.20;99.90;;;;;;5035233;28;20212;-81
2022/11/06 00:46:23;;;;;;;7.17;2.33;;;11.20;99.90;;;;;;5034925;28;20208;-83
2022/11/06 00:48:52;;;;;;;9.47;2.63;;;11.20;99.90;;;;;;5035511;28;20238;-80
2022/11/06 00:51:21;;;;;;;5.77;2.97;;;11.20;99.90;;;;;;5035607;28;20234;-78
2022/11/06 00:53:48;;;;;;;6.73;2.63;;;11.30;99.90;;;;;;5035408;28;20210;-84
2022/11/06 00:56:17;;;;;;;7.97;2.20;;;11.30;99.90;;;;;;5034790;28;20204;-82
2022/11/06 00:58:45;;;;;;;6.50;2.47;;;11.40;99.90;;;;;;5035726;28;20226;-79
2022/11/06 01:01:15;;;;;;;8.10;2.40;;;11.30;99.90;;;;;;5035207;28;20669;-82
2022/11/06 01:03:46;;;;;;;5.70;2.37;;;11.40;99.90;;;;;;5035799;28;20195;-79
2022/11/06 01:06:16;;;;;;;8.40;2.90;;;11.40;99.90;;;;;;5034884;28;20685;-82
2022/11/06 01:08:43;;;;;;;5.63;2.20;;;11.40;99.90;;;;;;5034880;28;20233;-79
2022/11/06 01:11:13;;;;;;;8.93;2.83;;;11.30;99.90;;;;;;5034995;28;20209;-79
2022/11/06 01:13:40;;;;;;;5.80;2.60;;;11.40;99.90;;;;;;5034775;28;20572;-77
2022/11/06 01:16:10;;;;;;;7.77;2.30;;;11.40;99.90;;;;;;5035137;28;20204;-80
2022/11/06 01:18:38;;;;;;;9.27;2.87;;;11.30;99.90;;;;;;5034819;28;20211;-79
2022/11/06 01:21:06;;;;;;;3.63;2.17;;;11.40;99.90;;;;;;5034869;28;20207;-82
2022/11/06 01:23:35;;;;;;;8.20;2.63;;;11.40;99.90;;;;;;5034781;28;20644;-84
2022/11/06 01:26:06;;;;;;;5.80;2.57;;;11.40;99.90;;;;;;5035021;28;20201;-82
2022/11/06 01:28:35;;;;;;;10.27;2.90;;;11.30;99.90;;;;;;5034775;28;20218;-80
2022/11/06 01:31:02;;;;;;;7.97;2.43;;;11.20;99.90;;;;;;5035079;28;20209;-79
2022/11/06 01:33:31;;;;;;;8.67;2.70;;;11.40;99.90;;;;;;5034486;28;20258;-78
2022/11/06 01:35:58;;;;;;;4.40;2.33;;;11.30;99.90;;;;;;5034655;28;20211;-78
2022/11/06 01:38:25;;;;;;;7.17;2.63;;;11.20;99.90;;;;;;5034366;28;20282;-79
2022/11/06 01:40:54;;;;;;;7.63;2.13;;;11.20;99.90;;;;;;5034518;28;20212;-78
2022/11/06 01:43:23;;;;;;;7.70;2.37;;;11.20;99.90;;;;;;5034587;28;20208;-79
2022/11/06 01:45:51;;;;;;;8.00;2.60;;;11.20;99.90;;;;;;5034535;28;20669;-79
2022/11/06 01:48:23;;;;;;;9.60;2.60;;;11.20;99.90;;;;;;5033993;28;20663;-79
2022/11/06 01:50:53;;;;;;;6.20;2.40;;;11.20;99.90;;;;;;5034431;28;20236;-78
2022/11/06 01:53:21;;;;;;;5.20;2.60;;;11.20;99.90;;;;;;5033955;28;20682;-80
2022/11/06 01:55:51;;;;;;;7.90;2.30;;;11.20;99.90;;;;;;5034161;28;20204;-82
2022/11/06 01:58:24;;;;;;;5.63;2.30;;;11.10;99.90;;;;;;5034171;28;20208;-79
2022/11/06 02:00:51;;;;;;;7.77;2.50;;;11.40;99.90;;;;;;5034237;28;20219;-82
2022/11/06 02:03:19;;;;;;;6.93;2.40;;;11.10;99.90;;;;;;5034287;28;20211;-82
2022/11/06 02:05:47;;;;;;;5.40;2.37;;;11.20;99.90;;;;;;5034707;28;20302;-81
2022/11/06 02:08:19;;;;;;;7.90;2.77;;;11.20;99.90;;;;;;5033833;28;20207;-80
2022/11/06 02:10:46;;;;;;;3.93;2.27;;;11.20;99.90;;;;;;5033717;28;20239;-79
2022/11/06 02:13:28;;;;;;;8.17;2.60;;;11.20;99.90;;;;;;5033978;28;20216;-78
2022/11/06 02:16:04;;;;;;;7.50;2.37;;;11.30;99.90;;;;;;5034005;28;20249;-79
2022/11/06 02:18:49;;;;;;;6.23;2.40;;;11.40;99.90;;;;;;5033532;28;20708;-78
2022/11/06 02:21:51;;;;;;;8.10;3.50;;;11.20;99.90;;;;;;5033914;28;20199;-78
2022/11/06 02:24:33;;;;;;;6.87;2.80;;;11.20;99.90;;;;;;5033880;28;20203;-79
2022/11/06 02:27:10;;;;;;;8.38;2.85;;;11.10;99.90;;;;;;5032896;28;20857;-79
2022/11/06 02:29:46;;;;;;;3.37;2.00;;;11.10;99.90;;;;;;5033109;28;20249;-78
2022/11/06 02:32:18;;;;;;;4.60;2.60;;;11.10;99.90;;;;;;5033821;28;20204;-79
2022/11/06 02:34:47;;;;;;;5.37;2.17;;;11.20;99.90;;;;;;5033221;28;20677;-78
2022/11/06 02:37:19;;;;;;;7.20;2.50;;;11.20;99.90;;;;;;5033191;28;20681;-79
2022/11/06 02:39:48;;;;;;;4.67;2.30;;;11.20;99.90;;;;;;5033319;28;20209;-79
2022/11/06 02:42:20;;;;;;;5.00;2.67;;;11.20;99.90;;;;;;5033514;28;20539;-77
2022/11/06 02:44:49;;;;;;;5.47;2.33;;;11.10;99.90;;;;;;5033058;28;20220;-79
2022/11/06 02:47:19;;;;;;;7.93;2.60;;;11.10;99.90;;;;;;5033291;28;20219;-78
2022/11/06 02:49:50;;;;;;;6.97;2.53;;;11.00;99.90;;;;;;5033180;28;20598;-78
2022/11/06 02:52:23;;;;;;;7.47;2.20;;;10.90;99.90;;;;;;5033108;28;20207;-78
2022/11/06 02:54:55;;;;;;;5.57;2.20;;;10.90;99.90;;;;;;5032990;28;20225;-80
2022/11/06 02:57:25;;;;;;;4.80;2.63;;;11.00;99.90;;;;;;5033281;28;20253;-79
2022/11/06 02:59:56;;;;;;;4.13;2.10;;;10.90;99.90;;;;;;5033179;28;20211;-78
2022/11/06 03:02:27;;;;;;;5.50;2.20;;;10.80;99.90;;;;;;5033199;28;20206;-79
2022/11/06 03:05:00;;;;;;;3.00;1.80;;;10.80;99.90;;;;;;5032943;28;20210;-79
2022/11/06 03:07:32;;;;;;;7.43;2.50;;;10.80;99.90;;;;;;5032344;28;20565;-79
2022/11/06 03:09:59;;;;;;;3.67;2.20;;;10.70;99.90;;;;;;5032669;28;20736;-79
2022/11/06 03:12:30;;;;;;;4.57;2.17;;;10.70;99.90;;;;;;5032830;28;20671;-79
2022/11/06 03:15:00;;;;;;;6.00;2.23;;;10.70;99.90;;;;;;5032868;28;20210;-79
2022/11/06 03:17:40;;;;;;;3.60;1.90;;;10.70;99.90;;;;;;5032896;28;20673;-79
2022/11/06 03:20:18;;;;;;;5.57;2.43;;;10.60;99.90;;;;;;5032490;28;20206;-79
2022/11/06 03:22:51;;;;;;;7.77;2.33;;;10.60;99.90;;;;;;5032911;28;20229;-80
2022/11/06 03:25:22;;;;;;;7.13;2.17;;;10.60;99.90;;;;;;5032828;28;20211;-78
2022/11/06 03:28:00;;;;;;;8.23;3.03;;;10.60;99.90;;;;;;5032006;28;20438;-79
2022/11/06 03:30:27;;;;;;;7.57;2.50;;;10.70;99.90;;;;;;5032471;28;20583;-78
2022/11/06 03:32:58;;;;;;;4.93;2.10;;;10.70;99.90;;;;;;5032978;28;20207;-78
2022/11/06 03:35:30;;;;;;;6.67;2.10;;;10.70;99.90;;;;;;5032465;28;20209;-78
2022/11/06 03:38:01;;;;;;;5.80;2.20;;;10.60;99.90;;;;;;5032713;28;20211;-79
2022/11/06 03:40:33;;;;;;;7.83;2.57;;;10.60;99.90;;;;;;5032735;28;20215;-81
2022/11/06 03:43:03;;;;;;;3.83;2.13;;;10.60;99.90;;;;;;5032674;28;20210;-78
2022/11/06 03:45:33;;;;;;;7.97;2.60;;;10.60;99.90;;;;;;5032453;28;20207;-78
2022/11/06 03:48:08;;;;;;;4.97;2.00;;;10.60;99.90;;;;;;5032859;28;20210;-78
2022/11/06 03:50:40;;;;;;;7.03;2.30;;;10.60;99.90;;;;;;5032124;28;20235;-81
2022/11/06 03:53:12;;;;;;;4.80;2.30;;;10.70;99.90;;;;;;5032957;28;20225;-81
2022/11/06 03:55:43;;;;;;;3.40;1.93;;;10.70;99.90;;;;;;5032722;28;20211;-82
2022/11/06 03:58:15;;;;;;;5.20;2.27;;;10.60;99.90;;;;;;5032794;28;20208;-81
2022/11/06 04:00:43;;;;;;;5.60;2.07;;;10.50;99.90;;;;;;5032689;28;20192;-81
2022/11/06 04:03:16;;;;;;;7.73;2.20;;;10.60;99.90;;;;;;5032309;28;20663;-81
2022/11/06 04:05:51;;;;;;;6.37;2.20;;;10.50;99.90;;;;;;5032534;28;20207;-81
2022/11/06 04:14:10;;;;;;;3.90;1.83;;;10.50;99.90;;;;;;5029161;28;20237;-82
2022/11/06 04:16:42;;;;;;;7.03;2.30;;;10.40;99.90;;;;;;5032658;28;20215;-87
2022/11/06 04:19:15;;;;;;;6.07;2.23;;;10.30;99.90;;;;;;5033390;28;20218;-86
2022/11/06 04:22:11;;;;;;;7.23;2.33;;;10.40;99.90;;;;;;5036404;28;20215;-84
2022/11/06 04:27:49;;;;;;;8.15;2.60;;;10.50;99.90;;;;;;5034996;28;20429;-78
2022/11/06 04:30:18;;;;;;;4.63;2.00;;;10.60;99.90;;;;;;5036461;28;20227;-82
2022/11/06 04:33:06;;;;;;;3.63;2.07;;;10.60;99.90;;;;;;5035499;28;20682;-80
2022/11/06 04:35:48;;;;;;;5.87;2.23;;;10.50;99.90;;;;;;5036125;28;20199;-86
2022/11/06 04:38:26;;;;;;;5.87;2.20;;;10.60;99.90;;;;;;5035851;28;20210;-83
2022/11/06 04:41:01;;;;;;;5.63;2.13;;;10.60;99.90;;;;;;5036130;28;20349;-79
2022/11/06 04:43:32;;;;;;;7.10;2.10;;;10.80;99.90;;;;;;5035204;28;20206;-82
2022/11/06 04:46:04;;;;;;;5.87;2.03;;;10.60;99.90;;;;;;5035743;28;20202;-78
2022/11/06 04:48:31;;;;;;;11.43;3.03;;;10.60;99.90;;;;;;5035092;28;20222;-78
2022/11/06 04:51:02;;;;;;;6.83;2.33;;;10.60;99.90;;;;;;5035213;28;20238;-79
2022/11/06 04:53:32;;;;;;;6.77;2.27;;;10.60;99.90;;;;;;5035178;28;20210;-79
2022/11/06 04:56:02;;;;;;;6.33;2.23;;;10.60;99.90;;;;;;5035444;28;20199;-80
2022/11/06 04:58:28;;;;;;;5.37;2.10;;;10.50;99.90;;;;;;5035465;28;20211;-78
2022/11/06 05:00:56;;;;;;;5.83;2.10;;;10.60;99.90;;;;;;5035575;28;20207;-83
2022/11/06 05:03:24;;;;;;;6.77;2.67;;;10.60;99.90;;;;;;5035275;28;20218;-78
2022/11/06 05:05:51;;;;;;;8.43;2.30;;;10.50;99.90;;;;;;5035338;28;20214;-79
2022/11/06 05:08:20;;;;;;;5.57;1.90;;;10.50;99.90;;;;;;5035085;28;20211;-79
2022/11/06 05:10:47;;;;;;;5.67;2.27;;;10.50;99.90;;;;;;5034954;28;20231;-80
2022/11/06 05:13:15;;;;;;;7.67;2.40;;;10.50;99.90;;;;;;5034832;28;20223;-81
2022/11/06 05:15:42;;;;;;;6.07;2.23;;;10.50;99.90;;;;;;5034942;28;20203;-78
2022/11/06 05:18:09;;;;;;;6.30;2.57;;;10.60;99.90;;;;;;5034468;28;20565;-79
2022/11/06 05:20:37;;;;;;;5.80;2.00;;;10.50;99.90;;;;;;5034997;28;20210;-82
2022/11/06 05:23:03;;;;;;;4.50;2.00;;;10.50;99.90;;;;;;5034792;28;20211;-80
2022/11/06 05:25:33;;;;;;;7.07;2.13;;;10.50;99.90;;;;;;5035056;28;20196;-79
2022/11/06 05:28:01;;;;;;;5.47;1.97;;;10.60;99.90;;;;;;5034681;28;20216;-78
2022/11/06 05:30:28;;;;;;;8.23;2.43;;;10.60;99.90;;;;;;5033852;28;20227;-79
2022/11/06 05:32:55;;;;;;;4.43;1.80;;;10.60;99.90;;;;;;5034622;28;20211;-77
2022/11/06 05:35:21;;;;;;;8.33;2.20;;;10.60;99.90;;;;;;5034669;28;20217;-78
2022/11/06 05:37:50;;;;;;;4.57;2.03;;;10.60;99.90;;;;;;5034348;28;20214;-79
2022/11/06 05:40:17;;;;;;;5.40;1.90;;;10.60;99.90;;;;;;5034410;28;20570;-79
2022/11/06 05:42:44;;;;;;;7.67;2.10;;;10.70;99.90;;;;;;5034320;28;20206;-78
2022/11/06 05:45:12;;;;;;;5.57;2.10;;;10.60;99.90;;;;;;5034210;28;20567;-78
2022/11/06 05:47:41;;;;;;;4.07;2.13;;;10.70;99.90;;;;;;5034820;28;20260;-80
2022/11/06 05:50:09;;;;;;;6.80;2.33;;;10.70;99.90;;;;;;5034621;28;20232;-80
2022/11/06 05:52:37;;;;;;;8.30;2.63;;;10.70;99.90;;;;;;5034669;28;20207;-82
2022/11/06 05:55:06;;;;;;;5.37;1.87;;;10.70;99.90;;;;;;5035212;28;20196;-82
2022/11/06 05:57:33;;;;;;;5.60;1.90;;;10.70;99.90;;;;;;5034982;28;20213;-81
2022/11/06 06:00:00;;;;;;;3.57;2.03;;;10.70;99.90;;;;;;5039799;28;20271;-80
2022/11/06 06:02:27;;;;;;;3.47;2.10;;;10.80;99.90;;;;;;5040694;28;20203;-80
2022/11/06 06:04:53;;;;;;;6.57;2.00;;;10.80;99.90;;;;;;5040625;28;20204;-82
2022/11/06 06:07:20;;;;;;;6.20;2.30;;;10.90;99.90;;;;;;5040549;28;20210;-82
2022/11/06 06:09:47;;;;;;;5.70;1.97;;;10.80;99.90;;;;;;5041019;28;20203;-80
2022/11/06 06:12:15;;;;;;;6.43;2.33;;;10.90;99.90;;;;;;5040947;28;20231;-80
2022/11/06 06:14:42;;;;;;;5.27;2.00;;;10.90;99.90;;;;;;5034392;28;20603;-78
2022/11/06 06:17:09;;;;;;;7.07;2.50;;;10.90;99.90;;;;;;5033827;28;20200;-79
2022/11/06 06:19:36;;;;;;;4.27;1.50;;;10.90;99.90;;;;;;5033844;28;20215;-80
2022/11/06 06:22:04;;;;;;;7.17;1.90;;;11.00;99.90;;;;;;5033862;28;20231;-80
2022/11/06 06:24:31;;;;;;;7.68;2.65;;;10.90;99.90;;;;;;5033649;28;20435;-81
2022/11/06 06:26:57;;;;;;;5.83;2.30;;;11.10;99.90;;;;;;5037373;28;20211;-80
2022/11/06 06:29:26;;;;;;;9.27;2.23;;;11.20;99.90;;;;;;5033445;28;20204;-82
2022/11/06 06:31:52;;;;;;;4.73;1.90;;;11.20;99.90;;;;;;5033652;28;20709;-79
2022/11/06 06:34:19;;;;;;;6.20;2.07;;;11.10;99.90;;;;;;5033516;28;20214;-80
2022/11/06 06:36:50;;;;;;;6.97;2.07;;;11.10;99.90;;;;;;5033611;28;20211;-78
2022/11/06 06:39:19;;;;;;;7.80;2.40;;;11.10;99.90;;;;;;5033501;28;20706;-80
2022/11/06 06:41:46;;;;;;;4.53;2.03;;;11.00;99.90;;;;;;5033218;28;20629;-79
2022/11/06 06:44:14;;;;;;;5.47;1.90;;;11.00;99.90;;;;;;5032815;28;20209;-78
2022/11/06 06:46:42;;;;;;;5.13;2.30;;;11.10;99.90;;;;;;5033607;28;20211;-78
2022/11/06 06:49:09;;;;;;;4.63;1.60;;;11.10;99.90;;;;;;5033269;28;20207;-79
2022/11/06 06:51:36;;;;;;;6.20;2.20;;;11.20;99.90;;;;;;5033284;28;20705;-79
2022/11/06 06:54:03;;;;;;;6.28;2.50;;;11.20;99.90;;;;;;5032486;28;20431;-80
2022/11/06 06:56:29;;;;;;;7.50;2.50;;;11.20;99.90;;;;;;5033492;28;20204;-81
2022/11/06 06:58:56;;;;;;;5.73;2.00;;;11.10;99.90;;;;;;5032987;28;20212;-80
2022/11/06 07:01:24;;;;;;;2.77;1.60;;;11.10;99.90;;;;;;5033251;28;20208;-79
2022/11/06 07:03:52;;;;;;;6.47;2.03;;;11.20;99.90;;;;;;5033388;28;20215;-82
2022/11/06 07:06:20;;;;;;;8.93;2.30;;;11.10;99.90;;;;;;5033433;28;20205;-80
2022/11/06 07:08:46;;;;;;;5.13;2.03;;;11.20;99.90;;;;;;5033047;28;20265;-82
2022/11/06 07:11:13;;;;;;;5.47;1.93;;;11.20;99.90;;;;;;5033132;28;20231;-82
2022/11/06 07:13:41;;;;;;;7.13;2.20;;;11.30;99.90;;;;;;5032902;28;20689;-80
2022/11/06 07:16:10;;;;;;;4.93;1.90;;;11.30;99.90;;;;;;5033711;28;20202;-81
2022/11/06 07:18:38;;;;;;;5.03;2.40;;;11.30;99.90;;;;;;5033170;28;20209;-88
2022/11/06 07:21:08;;;;;;;8.90;2.37;;;11.40;99.90;;;;;;5033113;28;20647;-86
2022/11/06 07:23:35;;;;;;;4.57;2.10;;;11.50;99.90;;;;;;5033656;28;20191;-80
2022/11/06 07:26:04;;;;;;;5.23;2.07;;;11.50;99.90;;;;;;5032734;28;20211;-78
2022/11/06 07:28:32;;;;;;;7.67;1.90;;;11.50;99.90;;;;;;5033118;28;20220;-79
2022/11/06 07:30:59;;;;;;;6.83;2.23;;;11.60;99.90;;;;;;5033008;28;20220;-84
2022/11/06 07:33:26;;;;;;;7.53;2.17;;;11.60;99.90;;;;;;5033205;28;20257;-83
2022/11/06 07:35:53;;;;;;;2.30;1.70;;;11.70;99.90;;;;;;5032922;28;20199;-80
2022/11/06 07:38:22;;;;;;;6.43;1.93;;;11.60;99.90;;;;;;5033195;28;20211;-79
2022/11/06 07:40:49;;;;;;;4.23;1.63;;;11.70;99.90;;;;;;5032855;28;20216;-80
2022/11/06 07:43:16;;;;;;;4.87;1.97;;;11.80;99.90;;;;;;5032958;28;20205;-80
2022/11/06 07:45:43;;;;;;;4.53;1.93;;;11.80;99.90;;;;;;5032834;28;20204;-80
2022/11/06 07:48:09;;;;;;;7.13;1.60;;;11.90;99.90;;;;;;5032394;28;20219;-78
2022/11/06 07:50:36;;;;;;;6.30;1.80;;;11.90;99.90;;;;;;5032371;28;20236;-78
2022/11/06 07:53:05;;;;;;;4.63;1.63;;;11.90;99.90;;;;;;5035539;28;20205;-79
2022/11/06 07:55:34;;;;;;;6.23;2.33;;;12.00;99.90;;;;;;5035811;28;20208;-78
2022/11/06 07:58:01;;;;;;;3.37;1.80;;;12.00;99.90;;;;;;5036637;28;20206;-83
2022/11/06 08:00:28;;;;;;;5.17;1.60;;;12.00;99.90;;;;;;5036381;28;20204;-79
2022/11/06 08:02:55;;;;;;;5.97;2.17;;;12.10;99.90;;;;;;5036682;28;20221;-80
2022/11/06 08:05:22;;;;;;;7.73;2.00;;;12.10;99.90;;;;;;5036379;28;20280;-78
2022/11/06 08:07:48;;;;;;;4.50;1.70;;;12.10;99.90;;;;;;5036607;28;20211;-78
2022/11/06 08:10:16;;;;;;;6.00;1.60;;;12.10;99.90;;;;;;5036111;28;20208;-78
2022/11/06 08:12:44;;;;;;;4.70;2.07;;;12.10;99.90;;;;;;5036353;28;20242;-81
2022/11/06 08:15:11;;;;;;;4.57;1.40;;;12.10;99.90;;;;;;5036056;28;20652;-82
2022/11/06 08:17:38;;;;;;;6.23;1.90;;;12.10;99.90;;;;;;5036249;28;20201;-80
2022/11/06 08:20:06;;;;;;;3.87;1.80;;;12.20;99.90;;;;;;5036377;28;20198;-83
2022/11/06 08:22:33;;;;;;;4.30;1.93;;;12.40;99.90;;;;;;5036410;28;20213;-89
2022/11/06 08:25:00;;;;;;;4.73;1.90;;;12.40;99.90;;;;;;5036081;28;20208;-79
2022/11/06 08:27:28;;;;;;;5.13;2.00;;;12.40;99.90;;;;;;5035742;28;20201;-80
2022/11/06 08:29:56;;;;;;;7.40;1.77;;;12.40;99.90;;;;;;5036039;28;20232;-81
2022/11/06 08:32:23;;;;;;;7.93;1.80;;;12.40;99.90;;;;;;5035748;28;20241;-80
2022/11/06 08:34:50;;;;;;;6.33;2.03;;;12.40;99.90;;;;;;5036093;28;20214;-84
2022/11/06 08:37:16;;;;;;;5.87;1.90;;;12.40;99.90;;;;;;5035663;28;20550;-83
2022/11/06 08:39:44;;;;;;;4.97;1.47;;;12.50;99.90;;;;;;5035964;28;20213;-78
2022/11/06 08:42:11;;;;;;;6.77;1.60;;;12.50;99.90;;;;;;5036102;28;20194;-81
2022/11/06 08:44:38;;;;;;;3.43;2.00;;;12.50;99.90;;;;;;5036490;28;20216;-83
2022/11/06 08:47:06;;;;;;;4.77;1.67;;;12.50;99.90;;;;;;5036092;28;20210;-82
2022/11/06 08:49:33;;;;;;;4.23;1.80;;;12.40;99.90;;;;;;5045521;28;20216;-78
2022/11/06 08:52:02;;;;;;;6.57;2.57;;;12.40;99.90;;;;;;5043229;28;20239;-88
2022/11/06 08:54:31;;;;;;;2.47;1.60;;;12.40;99.90;;;;;;5042255;28;20212;-81
2022/11/06 08:56:59;;;;;;;7.73;2.30;;;12.30;99.90;;;;;;5039390;28;20208;-79
2022/11/06 08:59:25;;;;;;;10.33;2.13;;;12.30;99.90;;;;;;5036146;28;20206;-79
2022/11/06 09:01:52;;;;;;;4.97;1.70;;;12.50;99.90;;;;;;5035593;28;20217;-79
2022/11/06 09:04:20;;;;;;;6.50;2.10;;;12.50;99.90;;;;;;5035728;28;20206;-78
2022/11/06 09:06:48;;;;;;;6.43;1.70;;;12.60;99.90;;;;;;5034393;28;20212;-84
2022/11/06 09:09:15;;;;;;;6.80;1.80;;;12.70;99.90;;;;;;5043225;28;20204;-79
2022/11/06 09:11:42;;;;;;;5.73;1.70;;;12.70;99.90;;;;;;5041940;28;20222;-78
2022/11/06 09:14:09;;;;;;;5.47;1.67;;;12.60;99.90;;;;;;5047588;28;20209;-79
2022/11/06 09:16:36;;;;;;;7.33;1.90;;;12.70;99.90;;;;;;5046294;28;20186;-79
2022/11/06 09:19:03;;;;;;;2.87;1.43;;;12.80;99.90;;;;;;5046273;28;20609;-80
2022/11/06 09:21:31;;;;;;;4.73;1.77;;;12.80;99.90;;;;;;5036940;28;20216;-83
2022/11/06 09:23:59;;;;;;;4.70;2.10;;;13.00;99.90;;;;;;5034413;28;20482;-79
2022/11/06 09:26:26;;;;;;;6.23;2.07;;;13.00;99.90;;;;;;5035049;28;20310;-81
2022/11/06 09:28:54;;;;;;;7.70;2.03;;;13.00;99.90;;;;;;5038042;28;20212;-78
2022/11/06 09:31:20;;;;;;;3.97;1.90;;;13.00;99.90;;;;;;5045515;28;20269;-79
2022/11/06 09:33:48;;;;;;;4.47;1.90;;;13.00;99.90;;;;;;5046957;28;20348;-81
2022/11/06 09:36:16;;;;;;;6.47;2.10;;;13.10;99.90;;;;;;5046167;28;20197;-80
2022/11/06 09:38:44;;;;;;;3.33;1.73;;;13.10;99.90;;;;;;5051857;28;20201;-79
2022/11/06 09:41:18;;;;;;;4.93;1.60;;;13.10;99.90;;;;;;5055206;28;20686;-81
2022/11/06 09:44:02;;;;;;;3.90;1.77;;;13.10;99.90;;;;;;5054339;28;20214;-79
2022/11/06 09:46:32;;;;;;;4.10;1.93;;;13.10;99.90;;;;;;5055248;28;20715;-78
2022/11/06 09:49:02;;;;;;;4.97;1.57;;;13.10;99.90;;;;;;5055158;28;20190;-79
2022/11/06 09:51:36;;;;;;;4.23;1.80;;;13.10;99.90;;;;;;5054383;28;20664;-80
2022/11/06 09:54:11;;;;;;;7.97;1.90;;;13.00;99.90;;;;;;5046336;28;20213;-86
2022/11/06 09:56:41;;;;;;;5.57;1.67;;;13.00;99.90;;;;;;5043820;28;20201;-92
2022/11/06 09:59:12;;;;;;;3.93;2.33;;;13.00;99.90;;;;;;5046262;28;20214;-82
2022/11/06 10:01:43;;;;;;;4.93;1.63;;;13.20;99.90;;;;;;5042564;28;20211;-85
2022/11/06 10:04:34;;;;;;;3.13;1.50;;;13.20;99.90;;;;;;5038974;28;20202;-80
2022/11/06 10:07:01;;;;;;;5.33;1.67;;;13.20;99.90;;;;;;5048142;28;20205;-76
2022/11/06 10:09:30;;;;;;;6.33;2.07;;;13.20;99.90;;;;;;5054275;28;20214;-78
2022/11/06 10:12:08;;;;;;;8.07;2.20;;;13.10;99.90;;;;;;5047900;28;20227;-75
2022/11/06 10:14:52;;;;;;;5.37;2.20;;;13.10;99.90;;;;;;5038414;28;20209;-81
2022/11/06 10:17:35;;;;;;;8.77;2.50;;;13.30;99.90;;;;;;5040645;28;20206;-81
2022/11/06 10:20:12;;;;;;;4.10;1.73;;;13.30;99.90;;;;;;5040979;28;20202;-82
2022/11/06 10:22:40;;;;;;;4.13;1.77;;;13.20;99.90;;;;;;5040268;28;20194;-83
2022/11/06 10:25:19;;;;;;;4.40;1.80;;;13.20;99.90;;;;;;5053847;28;20206;-79
2022/11/06 10:28:00;;;;;;;6.53;1.90;;;13.10;99.90;;;;;;5056101;28;20248;-88
2022/11/06 10:30:35;;;;;;;6.20;1.67;;;13.20;99.90;;;;;;5056475;28;20205;-90
2022/11/06 10:33:16;;;;;;;7.93;2.00;;;13.30;99.90;;;;;;5052102;28;20222;-77
2022/11/06 10:35:50;;;;;;;7.87;1.93;;;13.20;99.90;;;;;;5054143;28;20209;-88
2022/11/06 10:38:22;;;;;;;3.73;1.73;;;13.20;99.90;;;;;;5055139;28;20663;-83
2022/11/06 10:40:50;;;;;;;6.37;2.50;;;13.10;99.90;;;;;;5053862;28;20202;-87
2022/11/06 10:43:26;;;;;;;3.50;2.13;;;13.10;99.90;;;;;;5054224;28;20612;-79
2022/11/06 10:45:58;;;;;;;5.97;2.03;;;13.30;99.90;;;;;;5053940;28;20190;-76
2022/11/06 10:48:29;;;;;;;5.40;1.90;;;13.30;99.90;;;;;;5053915;28;20206;-79
2022/11/06 10:51:08;;;;;;;4.20;1.73;;;13.10;99.90;;;;;;5053829;28;20218;-84
2022/11/06 10:53:48;;;;;;;7.07;2.75;;;13.10;99.90;;;;;;5053335;28;20445;-77
2022/11/06 10:56:34;;;;;;;6.67;2.33;;;13.20;99.90;;;;;;5054966;28;20202;-82
2022/11/06 10:59:01;;;;;;;5.07;2.03;;;13.30;99.90;;;;;;5055174;28;20653;-81
2022/11/06 11:01:29;;;;;;;8.63;3.10;;;13.20;99.90;;;;;;5055421;28;20194;-83
2022/11/06 11:03:56;;;;;;;5.00;2.00;;;13.20;99.90;;;;;;5054710;28;20217;-79
2022/11/06 11:06:22;;;;;;;6.10;2.00;;;13.30;99.90;;;;;;5055438;28;20217;-81
2022/11/06 11:08:50;;;;;;;5.03;2.10;;;13.20;99.90;;;;;;5055598;28;20206;-79
2022/11/06 11:11:24;;;;;;;6.23;2.00;;;13.20;99.90;;;;;;5054748;28;20209;-81
2022/11/06 11:14:21;;;;;;;3.73;2.00;;;13.20;99.90;;;;;;5054844;28;20606;-80
2022/11/06 11:16:49;;;;;;;4.00;2.17;;;13.20;99.90;;;;;;5054420;28;20217;-80
2022/11/06 11:19:24;;;;;;;8.37;2.07;;;13.10;99.90;;;;;;5054781;28;20198;-81
2022/11/06 11:21:55;;;;;;;3.33;1.40;;;13.10;99.90;;;;;;5054999;28;20241;-79
2022/11/06 11:24:22;;;;;;;5.55;2.20;;;13.00;99.90;;;;;;5054855;28;20774;-91
2022/11/06 11:26:53;;;;;;;3.20;1.50;;;13.00;99.90;;;;;;5054778;28;20209;-86
2022/11/06 11:29:24;;;;;;;5.33;2.10;;;13.00;99.90;;;;;;5041528;28;20569;-80
2022/11/06 11:31:53;;;;;;;5.20;2.03;;;13.00;99.90;;;;;;5037404;28;20202;-83
2022/11/06 11:34:23;;;;;;;5.70;1.80;;;13.00;99.90;;;;;;5037132;28;20406;-87
2022/11/06 11:37:00;;;;;;;8.53;2.20;;;12.90;99.90;;;;;;5036662;28;20221;-82
2022/11/06 11:39:30;;;;;;;4.27;2.03;;;12.90;99.90;;;;;;5041026;28;20190;-82
2022/11/06 11:42:23;;;;;;;5.43;1.80;;;12.80;99.90;;;;;;5044235;28;20206;-80
2022/11/06 11:45:16;;;;;;;4.57;2.10;;;12.70;99.90;;;;;;5007938;28;20206;-79
2022/11/06 11:47:46;;;;;;;7.70;2.20;;;12.60;99.90;;;;;;5016049;28;20467;-82
2022/11/06 11:50:34;;;;;;;5.57;2.10;;;12.60;99.90;;;;;;5016878;28;20369;-80
2022/11/06 11:53:10;;;;;;;3.90;1.73;;;12.40;99.90;;;;;;5013574;28;20245;-79
2022/11/06 11:55:43;;;;;;;5.30;1.70;;;12.30;99.90;;;;;;5017015;28;20221;-78
2022/11/06 11:58:21;;;;;;;8.13;2.07;;;12.30;99.90;;;;;;5021256;28;20211;-79
2022/11/06 12:00:54;;;;;;;6.43;2.07;;;12.30;99.90;;;;;;5039311;28;20640;-81
2022/11/06 12:03:25;;;;;;;6.80;2.70;;;12.10;99.90;;;;;;5036489;28;20210;-79
2022/11/06 12:05:53;;;;;;;4.80;1.77;;;12.00;99.90;;;;;;5052543;28;20211;-78
2022/11/06 12:08:25;;;;;;;5.27;2.20;;;11.90;99.90;;;;;;5050065;28;20205;-80
2022/11/06 12:10:52;;;;;;;6.90;2.20;;;11.80;99.90;;;;;;5035567;28;20283;-80
2022/11/06 12:13:22;;;;;;;8.17;2.20;;;11.60;99.90;;;;;;5035993;28;20244;-83
2022/11/06 12:15:55;;;;;;;5.63;2.40;;;11.60;99.90;;;;;;5036403;28;20199;-80
2022/11/06 12:18:25;;;;;;;6.20;2.30;;;11.40;99.90;;;;;;5041348;28;20203;-79
2022/11/06 12:20:57;;;;;;;7.80;2.57;;;11.40;99.90;;;;;;5044378;28;20198;-82
2022/11/06 12:23:29;;;;;;;6.93;2.23;;;11.30;99.90;;;;;;5042991;28;20195;-79
2022/11/06 12:26:04;;;;;;;7.33;2.33;;;11.10;99.90;;;;;;5044186;28;20553;-77
2022/11/06 12:28:34;;;;;;;4.77;2.17;;;11.20;99.90;;;;;;5047814;28;20198;-80
2022/11/06 12:31:05;;;;;;;7.57;2.20;;;11.00;99.90;;;;;;5054447;28;20203;-88
2022/11/06 12:33:33;;;;;;;9.00;2.70;;;11.00;99.90;;;;;;5055577;28;20230;-81
2022/11/06 12:36:03;;;;;;;4.40;2.50;;;10.90;99.90;;;;;;5055660;28;20218;-83
2022/11/06 12:38:40;;;;;;;4.73;2.10;;;10.90;99.90;;;;;;5056194;28;20187;-81
2022/11/06 12:41:13;;;;;;;8.20;2.73;;;10.90;99.90;;;;;;5054416;28;20210;-81
2022/11/06 12:43:44;;;;;;;7.70;3.03;;;10.80;99.90;;;;;;5054985;28;20469;-81
2022/11/06 12:46:24;;;;;;;7.67;2.77;;;10.80;99.90;;;;;;5055622;28;20274;-79
2022/11/06 12:49:25;;;;;;;6.40;2.93;;;10.70;99.90;;;;;;5056141;28;20202;-79
2022/11/06 12:52:12;;;;;;;9.70;2.33;;;10.70;99.90;;;;;;5055306;28;20209;-80
2022/11/06 12:54:48;;;;;;;7.83;2.87;;;10.60;99.90;;;;;;5055691;28;20696;-80
2022/11/06 12:57:25;;;;;;;8.60;3.27;;;10.50;99.90;;;;;;5055669;28;20214;-78
2022/11/06 13:00:05;;;;;;;8.53;2.60;;;10.50;99.90;;;;;;5055368;28;20699;-82
2022/11/06 13:02:47;;;;;;;7.97;2.93;;;10.50;99.90;;;;;;5055684;28;20689;-80
2022/11/06 13:05:19;;;;;;;5.80;2.50;;;10.50;99.90;;;;;;5055792;28;20205;-81
2022/11/06 13:08:02;;;;;;;7.70;3.03;;;10.40;99.90;;;;;;5038160;28;20198;-79
2022/11/06 13:10:42;;;;;;;6.70;2.80;;;10.50;99.90;;;;;;5055830;28;20377;-84
2022/11/06 13:13:23;;;;;;;9.97;2.93;;;10.30;99.90;;;;;;5055315;28;20238;-79